Latest Weather Observations for St Helens

IDT60801

Issued at 6:31 pm EST Saturday 25 June 2016 (issued every 30 minutes, with the page automatically refreshed every 10 minutes)

About weather observations | Map of weather stations | Latest weather observations for TAS | Other Formats
Station Details ID: 092120 Name: ST HELENS AERODROME Lat: -41.34 Lon: 148.28 Height: 48.0 m
Data from the previous 72 hours. | See also: Recent months at St Helens
Date/Time
EST
Temp
°C
App
Temp
°C
Dew
Point
Rel
Hum
%
Delta-T
°C
Wind Press
QNH
hPa
Press
MSL
hPa
Rain
since 9 am
mm
Dir
 
Spd
km/h
Gust
km/h
Spd
kts
Gust
kts
25/06:30pm 7.0 4.9 4.0 81 1.3 N 4 9 2 5 1017.9 - 0.0
25/06:00pm 7.6 4.9 3.8 77 1.6 N 7 11 4 6 1017.7 1017.8 0.0
25/05:30pm 8.2 5.5 3.9 74 1.9 NNW 7 13 4 7 1017.6 - 0.0
25/05:00pm 8.9 7.4 2.9 66 2.6 CALM 0 9 0 5 1017.4 - 0.0
25/04:30pm 9.7 8.1 2.6 61 3.0 CALM 0 0 0 0 1017.2 - 0.0
25/03:30pm 10.7 7.6 1.3 52 3.9 SSW 7 11 4 6 1017.2 - 0.0
25/03:00pm 10.9 7.5 1.7 53 3.9 SW 9 17 5 9 1017.1 1017.2 0.0
25/02:30pm 10.3 4.8 0.9 52 3.9 SSW 19 32 10 17 1016.9 - 0.0
25/02:00pm 10.3 5.5 0.3 50 4.1 SW 15 28 8 15 1016.9 - 0.0
25/01:30pm 10.2 5.4 0.3 50 4.0 SSW 15 28 8 15 1016.8 - 0.0
25/01:00pm 9.9 4.8 0.5 52 3.8 SW 17 28 9 15 1016.7 - 0.0
25/12:30pm 9.9 4.8 0.5 52 3.8 SSW 17 30 9 16 1017.1 - 0.0
25/12:00pm 9.3 4.5 0.0 52 3.7 SSW 15 24 8 13 1017.3 1017.4 0.0
25/11:30am 8.9 3.1 0.1 54 3.5 SSW 20 33 11 18 1017.4 - 0.0
25/11:03am 8.3 0.9 -0.7 53 3.5 SSW 28 48 15 26 1017.1 - 0.0
25/11:00am 8.3 1.7 -0.4 54 3.4 SSW 24 39 13 21 1017.2 - 0.0
25/10:33am 7.9 0.5 -0.8 54 3.4 SSW 28 48 15 26 1017.1 - 0.0
25/10:30am 7.8 0.8 -0.4 56 3.2 SSW 26 43 14 23 1017.1 - 0.0
25/10:02am 7.5 0.0 -1.2 54 3.3 SW 28 46 15 25 1017.1 - 0.0
25/10:00am 7.5 0.5 -0.7 56 3.2 SSW 26 46 14 25 1017.1 - 0.0
25/09:30am 7.0 1.3 -0.9 57 3.0 SSW 19 33 10 18 1016.7 - 0.0
25/09:00am 4.1 0.0 -0.5 72 1.7 WSW 11 26 6 14 1016.5 1016.6 0.0
25/08:30am 1.5 -1.8 -0.9 84 0.9 WNW 6 11 3 6 1016.5 - 0.0
25/08:00am 0.6 -2.7 -1.0 89 0.6 W 6 11 3 6 1016.3 - 0.0
25/07:30am 0.4 -3.4 -0.7 92 0.4 NW 9 15 5 8 1016.0 - 0.0
25/07:00am 0.1 -4.2 -1.3 90 0.5 NNW 11 15 6 8 1015.5 - 0.0
25/06:30am 0.4 -2.9 -1.2 89 0.6 W 6 9 3 5 1015.2 - 0.0
25/06:00am 1.2 -3.3 -0.6 88 0.6 N 13 20 7 11 1014.7 1014.8 0.0
25/05:30am 1.0 -2.4 -0.8 88 0.6 NNW 7 11 4 6 1014.5 - 0.0
25/05:00am 1.6 -2.1 -0.2 88 0.7 NNW 9 13 5 7 1014.1 - 0.0
25/04:30am 1.9 -1.8 -0.3 85 0.8 NW 9 15 5 8 1013.7 - 0.0
25/04:00am 2.0 -1.8 -0.6 83 0.9 NW 9 11 5 6 1013.6 - 0.0
25/03:30am 4.4 0.6 -0.8 69 1.9 W 9 13 5 7 1013.1 - 0.0
25/03:00am 4.8 -1.0 -1.8 62 2.4 SW 19 26 10 14 1012.6 1012.6 0.0
25/02:30am 5.6 -0.4 -1.8 59 2.7 SW 20 39 11 21 1012.4 - 0.0
25/02:03am 5.8 -1.7 -1.6 59 2.7 SW 28 46 15 25 1011.8 - 0.0
25/02:00am 6.0 -1.5 -1.6 58 2.8 SW 28 39 15 21 1011.7 - 0.0
25/01:33am 5.7 -1.7 -1.0 62 2.5 SW 28 50 15 27 1011.3 - 0.0
25/01:30am 5.7 -1.4 -1.0 62 2.5 SW 26 50 14 27 1011.2 - 0.0
25/01:00am 5.8 2.5 -1.1 61 2.6 SSE 6 13 3 7 1011.1 - 0.0
25/12:30am 5.1 1.8 -1.1 64 2.3 SSE 6 15 3 8 1010.7 - 0.0
25/12:00am 5.5 1.3 -1.0 63 2.4 SSW 11 24 6 13 1010.3 1010.3 0.0
 
Date/Time
EST
Temp
°C
App
Temp
°C
Dew
Point
Rel
Hum
%
Delta-T
°C
Wind Press
QNH
hPa
Press
MSL
hPa
Rain
since 9 am
mm
Dir
 
Spd
km/h
Gust
km/h
Spd
kts
Gust
kts
24/11:30pm 5.8 1.6 -0.9 62 2.5 S 11 19 6 10 1010.1 - 0.0
24/11:00pm 5.8 0.5 -0.7 63 2.5 SSW 17 26 9 14 1009.5 - 0.0
24/10:30pm 6.1 -0.5 -0.6 62 2.5 SSW 24 39 13 21 1009.1 - 0.0
24/10:00pm 6.1 0.2 -0.6 62 2.5 SSW 20 35 11 19 1008.9 - 0.0
24/09:30pm 6.1 0.4 -0.4 63 2.5 SSW 19 32 10 17 1008.0 - 0.0
24/09:00pm 6.0 1.5 -0.3 64 2.4 SSW 13 24 7 13 1007.4 1007.5 0.0
24/08:30pm 6.2 2.5 -0.1 64 2.4 SSW 9 24 5 13 1007.0 - 0.0
24/08:00pm 6.6 2.2 0.3 64 2.5 SSW 13 26 7 14 1006.3 - 0.0
24/07:30pm 5.8 2.2 0.6 69 2.0 SSW 9 17 5 9 1005.7 - 0.0
24/07:00pm 4.6 2.5 1.5 80 1.2 WSW 2 7 1 4 1005.1 - 0.0
24/06:30pm 5.3 2.2 1.4 76 1.5 W 7 9 4 5 1004.4 - 0.0
24/06:00pm 6.1 2.1 0.6 68 2.2 SSW 11 17 6 9 1003.5 1003.6 0.0
24/05:30pm 6.7 2.4 0.8 66 2.3 SSW 13 24 7 13 1002.9 - 0.0
24/05:00pm 6.7 2.5 1.6 70 2.1 SSW 13 19 7 10 1002.2 - 0.0
24/04:30pm 6.7 2.9 2.0 72 1.9 SSW 11 15 6 8 1001.5 - 0.0
24/04:00pm 7.8 3.7 2.1 67 2.4 SSW 13 19 7 10 1001.0 - 0.0
24/03:30pm 8.7 5.1 3.1 68 2.4 SW 11 17 6 9 1000.6 - 0.0
24/03:00pm 9.2 6.1 3.4 67 2.5 SSW 9 15 5 8 1000.0 1000.1 0.0
24/02:30pm 9.4 5.9 3.4 66 2.6 SSW 11 20 6 11 999.3 - 0.0
24/02:00pm 11.1 8.4 3.6 60 3.3 W 7 17 4 9 998.8 - 0.0
24/01:30pm 10.6 7.8 3.4 61 3.2 W 7 11 4 6 998.6 - 0.0
24/01:00pm 8.7 5.5 3.1 68 2.4 WSW 9 13 5 7 998.4 - 0.0
24/12:30pm 8.1 5.4 3.6 73 1.9 WSW 7 15 4 8 998.3 - 0.0
24/12:00pm 7.4 4.2 3.3 75 1.8 W 9 17 5 9 998.2 998.3 0.0
24/11:30am 7.3 4.4 2.8 73 1.9 WSW 7 19 4 10 998.4 - 0.0
24/11:00am 7.1 4.2 2.6 73 1.9 WSW 7 13 4 7 998.4 - 0.0
24/10:30am 6.5 3.8 2.8 77 1.5 W 6 11 3 6 998.6 - 0.0
24/10:00am 5.1 2.8 2.8 85 0.9 W 4 9 2 5 998.3 - 0.0
24/09:30am 4.7 1.4 2.2 84 1.0 N 9 11 5 6 998.0 - 0.0
24/09:00am 4.7 1.8 2.7 87 0.8 NW 7 11 4 6 997.6 997.7 10.6
24/08:30am 3.5 0.3 2.9 96 0.2 NNW 9 11 5 6 997.3 - 10.6
24/08:00am 3.3 -0.4 2.3 93 0.4 N 11 15 6 8 997.0 - 10.6
24/07:30am 2.9 -0.1 2.3 96 0.2 NNW 7 13 4 7 996.7 - 10.6
24/07:00am 3.2 0.2 1.9 91 0.5 NW 7 13 4 7 996.3 - 10.6
24/06:30am 3.5 -0.2 2.3 92 0.5 NW 11 13 6 7 996.1 - 10.6
24/06:00am 3.2 -0.1 2.6 96 0.2 NW 9 15 5 8 996.0 996.0 10.6
24/05:30am 3.5 0.3 3.1 97 0.2 N 9 13 5 7 995.6 - 10.6
24/05:00am 4.1 1.9 3.5 96 0.2 NW 4 11 2 6 995.2 - 10.6
24/04:30am 4.8 2.2 4.1 95 0.3 NNW 7 13 4 7 995.0 - 10.6
24/04:00am 5.3 2.7 3.3 87 0.8 WNW 6 9 3 5 995.0 - 10.6
24/03:30am 5.9 4.0 2.7 80 1.3 NW 2 7 1 4 995.1 - 10.6
24/03:00am 5.8 3.9 3.1 83 1.1 NNW 2 7 1 4 995.1 995.1 10.6
24/02:30am 6.3 4.4 3.1 80 1.3 WNW 2 9 1 5 994.8 - 10.6
24/02:00am 6.5 3.9 3.3 80 1.3 W 6 11 3 6 994.6 - 10.6
24/01:30am 6.5 2.9 3.1 79 1.4 W 11 17 6 9 993.9 - 10.6
24/01:00am 6.3 3.6 3.5 82 1.2 WSW 7 15 4 8 993.8 - 10.6
24/12:30am 6.5 3.3 3.3 80 1.3 W 9 15 5 8 994.1 - 10.6
24/12:00am 6.2 3.1 3.5 83 1.1 WSW 9 17 5 9 994.3 994.3 10.6
 
Date/Time
EST
Temp
°C
App
Temp
°C
Dew
Point
Rel
Hum
%
Delta-T
°C
Wind Press
QNH
hPa
Press
MSL
hPa
Rain
since 9 am
mm
Dir
 
Spd
km/h
Gust
km/h
Spd
kts
Gust
kts
23/11:30pm 7.1 3.2 3.5 78 1.5 WNW 13 20 7 11 994.0 - 10.6
23/11:00pm 6.9 3.4 3.7 80 1.4 WNW 11 22 6 12 993.9 - 10.6
23/10:30pm 7.6 4.3 4.4 80 1.4 W 11 20 6 11 993.5 - 10.6
23/10:00pm 6.8 4.3 4.8 87 0.9 NW 7 13 4 7 993.3 - 10.6
23/09:30pm 6.5 3.8 3.8 83 1.1 SSW 7 11 4 6 993.1 - 10.6
23/09:00pm 7.1 2.2 4.2 82 1.3 SSW 19 32 10 17 993.4 993.4 10.6
23/08:30pm 8.8 5.7 5.7 81 1.4 W 11 19 6 10 992.2 - 10.6
23/08:00pm 8.5 6.6 6.6 88 0.9 SE 6 11 3 6 991.5 - 10.6
23/07:30pm 8.9 5.3 6.9 87 0.9 NW 15 24 8 13 990.6 - 10.6
23/07:00pm 9.6 5.4 7.4 86 1.0 W 19 41 10 22 991.4 - 10.2
23/06:30pm 10.8 5.1 8.2 84 1.3 NW 28 46 15 25 990.1 - 9.6
23/06:00pm 11.7 5.0 7.4 75 2.1 NNW 32 63 17 34 989.3 989.3 9.2
23/05:30pm 11.3 4.8 8.2 81 1.5 NNW 32 56 17 30 989.5 - 8.6
23/05:00pm 12.5 4.3 6.5 67 2.9 NNW 39 72 21 39 989.5 - 8.2
23/04:43pm 12.4 4.6 6.7 68 2.7 NW 37 72 20 39 989.5 - 8.2
23/04:30pm 12.5 5.7 6.8 68 2.7 NW 32 52 17 28 989.6 - 8.2
23/04:00pm 12.2 5.6 7.7 74 2.2 NNW 32 56 17 30 989.7 - 8.2
23/03:30pm 11.7 5.3 8.4 80 1.6 NW 32 50 17 27 990.2 - 8.0
23/03:00pm 11.3 5.8 9.0 86 1.2 NW 28 52 15 28 990.5 990.5 8.0
23/02:50pm 11.3 5.1 9.2 87 1.1 NNW 32 54 17 29 990.5 - 7.8
23/02:33pm 10.9 5.6 9.7 92 0.6 NW 28 50 15 27 991.0 - 7.6
23/02:30pm 10.9 5.9 9.7 92 0.6 NW 26 50 14 27 991.0 - 7.6
23/02:07pm 10.1 6.7 9.0 93 0.5 NNW 17 26 9 14 991.8 - 6.8
23/02:00pm 10.1 7.0 9.0 93 0.5 NNW 15 22 8 12 992.1 - 6.4
23/01:30pm 10.6 7.1 8.7 88 0.9 N 17 26 9 14 992.7 - 5.0
23/01:00pm 10.7 7.9 8.6 87 1.0 NNW 13 20 7 11 993.3 - 4.8
23/12:30pm 10.5 7.4 8.8 89 0.8 NNW 15 22 8 12 993.5 - 4.8
23/12:00pm 9.6 6.7 8.2 91 0.7 NNW 13 22 7 12 994.3 994.3 3.6
23/11:30am 10.1 7.4 8.9 92 0.6 NW 13 20 7 11 994.7 - 2.6
23/11:00am 10.2 7.0 8.6 90 0.8 NNW 15 22 8 12 995.5 - 1.4
23/10:30am 10.7 7.0 7.9 83 1.4 NW 17 24 9 13 995.5 - 0.6
23/10:00am 11.0 6.6 7.5 79 1.7 WNW 20 39 11 21 995.3 - 0.6
23/09:30am 10.6 7.0 8.2 85 1.2 NW 17 26 9 14 995.8 - 0.2
23/09:00am 11.0 5.9 7.5 79 1.7 NW 24 43 13 23 995.3 995.3 9.6
23/08:30am 9.8 7.6 7.9 88 0.9 NNW 9 17 5 9 995.6 - 9.6
23/08:00am 9.4 6.0 7.5 88 0.9 NNW 15 24 8 13 995.3 - 9.6
23/07:30am 9.2 5.0 7.3 88 0.9 W 19 37 10 20 995.5 - 8.2
23/07:00am 9.3 4.9 7.6 89 0.8 W 20 41 11 22 996.0 - 6.4
23/06:30am 10.0 5.7 7.8 86 1.1 W 20 41 11 22 996.1 - 3.8
23/06:00am 9.9 6.0 8.5 91 0.7 NNW 19 28 10 15 996.1 996.1 2.6
23/05:30am 9.8 6.0 7.7 87 1.0 W 17 28 9 15 996.2 - 1.2
23/05:00am 10.0 6.6 7.8 86 1.1 W 15 30 8 16 996.0 - 0.6
23/04:30am 11.0 7.4 6.6 74 2.1 WSW 15 32 8 17 996.0 - 0.0
23/04:00am 10.6 6.9 6.4 75 2.0 WNW 15 33 8 18 996.5 - 0.0
23/03:30am 10.5 6.4 6.1 74 2.0 WNW 17 28 9 15 996.7 - 0.0
23/03:00am 10.3 6.0 5.3 71 2.3 WNW 17 28 9 15 997.4 997.5 0.0
23/02:30am 10.4 6.0 4.8 68 2.5 WNW 17 30 9 16 997.8 - 0.0
23/02:00am 10.3 5.5 4.7 68 2.5 NW 19 28 10 15 998.2 - 0.0
23/01:30am 10.0 5.2 4.4 68 2.5 WNW 19 26 10 14 998.2 - 0.0
23/01:00am 9.9 6.0 3.6 65 2.8 W 13 26 7 14 998.6 - 0.0
23/12:30am 10.3 5.1 2.7 59 3.3 W 19 35 10 19 998.8 - 0.0
23/12:00am 10.0 4.5 1.6 56 3.5 W 20 35 11 19 998.7 998.8 0.0
 
Date/Time
EST
Temp
°C
App
Temp
°C
Dew
Point
Rel
Hum
%
Delta-T
°C
Wind Press
QNH
hPa
Press
MSL
hPa
Rain
since 9 am
mm
Dir
 
Spd
km/h
Gust
km/h
Spd
kts
Gust
kts
22/11:30pm 9.7 4.6 0.6 53 3.7 W 17 28 9 15 998.6 - 0.0
22/11:00pm 9.9 3.7 0.0 50 4.0 W 22 43 12 23 998.7 - 0.0
22/10:30pm 9.7 4.2 1.6 57 3.4 W 20 32 11 17 998.5 - 0.0
22/10:00pm 9.4 4.0 1.3 57 3.3 W 19 33 10 18 998.7 - 0.0
22/09:30pm 9.7 3.7 1.1 55 3.5 WSW 22 43 12 23 998.4 - 0.0
22/09:00pm 9.0 4.4 1.4 59 3.2 WSW 15 26 8 14 998.3 998.4 0.0
22/08:30pm 9.4 4.4 1.1 56 3.4 WSW 17 33 9 18 998.2 - 0.0
22/08:00pm 9.4 3.9 0.6 54 3.6 W 19 37 10 20 997.6 - 0.0
22/07:30pm 9.2 4.4 0.1 53 3.6 WSW 15 30 8 16 997.1 - 0.0
22/07:00pm 9.5 4.3 -0.1 51 3.8 WSW 17 26 9 14 996.8 - 0.0

Other Formats:

Comma delimited format used in spreadsheet applications
http://www.bom.gov.au/fwo/IDT60801/IDT60801.95981.axf

JavaScript Object Notation format (JSON) in row-major order
http://www.bom.gov.au/fwo/IDT60801/IDT60801.95981.json